Time;durP1;ratioP1;P1;durP2;ratioP2;P2;SDS_P1;SDS_P2;PMS_P1;PMS_P2;Temp;Humidity;BMP_temperature;BMP_pressure;BME280_temperature;BME280_humidity;BME280_pressure;Samples;Min_cycle;Max_cycle;Signal;HPM_P1;HPM_P2
2022/07/12 00:02:36;;;;;;;1.50;0.95;;;;;;;15.63;100.00;102176.22;6201644;28;20491;-78
2022/07/12 00:05:37;;;;;;;1.83;1.23;;;;;;;15.67;100.00;102187.56;6203009;28;20050;-78
2022/07/12 00:08:39;;;;;;;1.48;1.10;;;;;;;15.65;100.00;102186.75;6200824;28;20053;-78
2022/07/12 00:11:40;;;;;;;0.88;0.80;;;;;;;15.61;100.00;102188.66;6201832;28;20050;-78
2022/07/12 00:14:43;;;;;;;1.13;0.90;;;;;;;15.58;100.00;102191.50;6202088;28;20064;-78
2022/07/12 00:17:44;;;;;;;1.00;0.73;;;;;;;15.56;100.00;102192.50;6201926;28;20054;-78
2022/07/12 00:20:45;;;;;;;1.17;1.02;;;;;;;15.53;100.00;102195.28;6201535;28;20053;-78
2022/07/12 00:23:47;;;;;;;2.03;1.10;;;;;;;15.56;100.00;102195.16;6217756;28;20050;-78
2022/07/12 00:26:48;;;;;;;1.10;0.80;;;;;;;15.56;100.00;102190.69;6225635;28;20102;-78
2022/07/12 00:29:51;;;;;;;1.92;1.15;;;;;;;15.52;100.00;102188.28;6224979;28;20053;-78
2022/07/12 00:32:52;;;;;;;0.90;0.73;;;;;;;15.53;100.00;102177.59;6213436;28;20053;-78
2022/07/12 00:35:54;;;;;;;1.85;0.90;;;;;;;15.55;100.00;102172.25;6201286;28;20042;-78
2022/07/12 00:38:56;;;;;;;4.32;0.90;;;;;;;15.55;100.00;102177.53;6201050;28;20469;-78
2022/07/12 00:41:57;;;;;;;1.25;0.98;;;;;;;15.51;100.00;102178.63;6219563;28;20147;-78
2022/07/12 00:45:00;;;;;;;1.00;0.90;;;;;;;15.52;100.00;102180.34;6225121;28;20053;-77
2022/07/12 00:48:02;;;;;;;1.45;1.00;;;;;;;15.53;100.00;102187.34;6225375;28;20053;-78
2022/07/12 00:51:03;;;;;;;1.05;0.95;;;;;;;15.50;100.00;102187.53;6225255;28;20046;-78
2022/07/12 00:54:05;;;;;;;1.45;1.10;;;;;;;15.53;100.00;102174.94;6225044;28;20046;-78
2022/07/12 00:57:07;;;;;;;2.67;1.15;;;;;;;15.55;100.00;102178.41;6224940;28;20053;-78
2022/07/12 01:00:12;;;;;;;1.17;0.88;;;;;;;15.57;100.00;102173.84;6225008;28;20054;-79
2022/07/12 01:03:13;;;;;;;1.40;0.93;;;;;;;15.57;100.00;102175.66;6212630;28;20062;-78
2022/07/12 01:06:15;;;;;;;1.25;1.08;;;;;;;15.59;100.00;102176.44;6200312;28;20057;-78
2022/07/12 01:09:16;;;;;;;1.65;1.10;;;;;;;15.60;100.00;102164.91;6216714;28;20065;-78
2022/07/12 01:12:18;;;;;;;1.02;0.82;;;;;;;15.61;100.00;102163.97;6224527;28;20060;-78
2022/07/12 01:15:22;;;;;;;0.90;0.80;;;;;;;15.58;100.00;102158.81;6224916;28;20050;-78
2022/07/12 01:18:25;;;;;;;1.70;1.55;;;;;;;15.56;100.00;102166.84;6224707;28;20053;-78
2022/07/12 01:21:32;;;;;;;2.80;1.42;;;;;;;15.50;100.00;102159.22;6224392;28;20056;-78
2022/07/12 01:24:34;;;;;;;1.33;1.15;;;;;;;15.51;100.00;102160.09;6224439;28;20042;-77
2022/07/12 01:27:38;;;;;;;1.42;1.23;;;;;;;15.50;100.00;102155.72;6224586;28;20053;-78
2022/07/12 01:30:41;;;;;;;1.48;1.05;;;;;;;15.51;100.00;102155.63;6223953;28;20461;-78
2022/07/12 01:33:42;;;;;;;1.40;1.15;;;;;;;15.52;100.00;102145.88;6212136;28;20054;-77
2022/07/12 01:36:45;;;;;;;2.00;1.50;;;;;;;15.54;100.00;102149.34;6199536;28;20554;-78
2022/07/12 01:39:50;;;;;;;1.15;1.00;;;;;;;15.57;100.00;102142.06;6199702;28;20081;-78
2022/07/12 01:42:53;;;;;;;2.20;1.27;;;;;;;15.58;100.00;102140.25;6200125;28;20046;-78
2022/07/12 01:45:54;;;;;;;1.67;1.40;;;;;;;15.57;100.00;102133.25;6199310;28;20046;-78
2022/07/12 01:48:55;;;;;;;1.60;1.30;;;;;;;15.56;100.00;102140.34;6199201;28;20054;-78
2022/07/12 01:51:58;;;;;;;2.80;1.27;;;;;;;15.54;100.00;102136.09;6199614;28;20055;-78
2022/07/12 01:55:01;;;;;;;2.30;1.60;;;;;;;15.53;100.00;102142.31;6199127;28;20058;-78
2022/07/12 01:58:02;;;;;;;1.70;1.35;;;;;;;15.52;100.00;102137.94;6199915;28;20050;-78
2022/07/12 02:01:04;;;;;;;1.60;1.40;;;;;;;15.50;100.00;102142.47;6199021;28;20474;-78
2022/07/12 02:04:05;;;;;;;1.92;1.55;;;;;;;15.46;100.00;102145.28;6220990;28;20057;-78
2022/07/12 02:07:07;;;;;;;1.80;1.48;;;;;;;15.47;100.00;102148.78;6223642;28;20057;-78
2022/07/12 02:10:10;;;;;;;2.28;1.60;;;;;;;15.45;100.00;102156.81;6223295;28;20054;-78
2022/07/12 02:13:12;;;;;;;2.08;1.20;;;;;;;15.43;100.00;102157.81;6223630;28;20461;-78
2022/07/12 02:16:13;;;;;;;1.35;1.20;;;;;;;15.39;100.00;102156.25;6223405;28;20042;-78
2022/07/12 02:19:15;;;;;;;1.25;1.15;;;;;;;15.40;100.00;102156.19;6221543;28;20054;-78
2022/07/12 02:22:16;;;;;;;1.40;1.20;;;;;;;15.40;100.00;102155.34;6222595;28;20486;-78
2022/07/12 02:25:19;;;;;;;1.67;1.23;;;;;;;15.39;100.00;102167.72;6222170;28;20494;-78
2022/07/12 02:28:20;;;;;;;2.70;1.00;;;;;;;15.38;100.00;102157.19;6222889;28;20081;-78
2022/07/12 02:31:22;;;;;;;1.80;1.30;;;;;;;15.39;100.00;102158.91;6222395;28;20054;-78
2022/07/12 02:34:23;;;;;;;1.42;1.10;;;;;;;15.38;100.00;102167.78;6220216;28;20049;-78
2022/07/12 02:37:25;;;;;;;2.10;1.20;;;;;;;15.35;100.00;102167.94;6230282;28;20068;-78
2022/07/12 02:43:46;;;;;;;1.77;1.55;;;;;;;15.34;100.00;102167.09;6230669;28;20732;-78
2022/07/12 02:46:48;;;;;;;1.52;1.30;;;;;;;15.35;100.00;102160.00;6234044;28;20053;-77
2022/07/12 02:49:49;;;;;;;1.40;1.20;;;;;;;15.34;100.00;102169.72;6232904;28;20409;-78
2022/07/12 02:52:50;;;;;;;1.58;1.10;;;;;;;15.34;100.00;102174.19;6233484;28;20049;-78
2022/07/12 02:55:53;;;;;;;1.92;1.40;;;;;;;15.30;100.00;102173.47;6233271;28;20053;-77
2022/07/12 02:58:55;;;;;;;1.63;1.30;;;;;;;15.35;100.00;102187.38;6236085;28;20049;-78
2022/07/12 03:01:57;;;;;;;1.90;1.05;;;;;;;15.36;100.00;102193.53;6232902;28;20060;-78
2022/07/12 03:04:59;;;;;;;1.30;1.20;;;;;;;15.35;100.00;102197.97;6233869;28;20132;-78
2022/07/12 03:08:00;;;;;;;1.50;1.30;;;;;;;15.37;100.00;102200.53;6233222;28;20419;-78
2022/07/12 03:11:03;;;;;;;1.73;1.20;;;;;;;15.38;100.00;102197.78;6232600;28;20050;-78
2022/07/12 03:14:04;;;;;;;1.48;1.30;;;;;;;15.40;100.00;102203.88;6233768;28;20057;-78
2022/07/12 03:17:05;;;;;;;1.92;1.27;;;;;;;15.41;100.00;102210.88;6232170;28;20045;-78
2022/07/12 03:20:11;;;;;;;2.65;1.38;;;;;;;15.39;100.00;102199.50;6234051;28;20069;-78
2022/07/12 03:23:12;;;;;;;2.75;1.85;;;;;;;15.38;100.00;102202.22;6234002;28;20122;-77
2022/07/12 03:26:15;;;;;;;1.70;1.33;;;;;;;15.38;100.00;102211.03;6232188;28;20046;-78
2022/07/12 03:29:16;;;;;;;2.15;1.55;;;;;;;15.36;100.00;102217.34;6246851;28;20417;-78
2022/07/12 03:32:19;;;;;;;1.35;1.17;;;;;;;15.37;100.00;102225.22;6216693;28;20057;-78
2022/07/12 03:35:20;;;;;;;1.90;1.58;;;;;;;15.36;100.00;102223.50;6198317;28;20050;-78
2022/07/12 03:38:22;;;;;;;1.80;1.33;;;;;;;15.38;100.00;102226.94;6198027;28;20050;-78
2022/07/12 03:41:24;;;;;;;3.70;1.85;;;;;;;15.37;100.00;102221.72;6198572;28;20050;-78
2022/07/12 03:44:26;;;;;;;2.22;1.70;;;;;;;15.35;100.00;102226.22;6201866;28;20061;-78
2022/07/12 03:47:27;;;;;;;2.25;1.60;;;;;;;15.35;100.00;102229.75;6201934;28;20050;-78
2022/07/12 03:50:28;;;;;;;2.15;1.52;;;;;;;15.34;100.00;102227.16;6202037;28;20047;-78
2022/07/12 03:53:30;;;;;;;1.98;1.58;;;;;;;15.32;100.00;102234.34;6202476;28;20490;-78
2022/07/12 04:00:07;;;;;;;2.45;1.77;;;;;;;15.36;100.00;102238.56;6151851;28;20511;-78
2022/07/12 04:03:08;;;;;;;2.67;1.73;;;;;;;15.37;100.00;102245.56;6202408;28;20062;-78
2022/07/12 04:06:11;;;;;;;2.90;1.98;;;;;;;15.33;100.00;102244.84;6201669;28;20043;-78
2022/07/12 04:09:12;;;;;;;3.30;2.05;;;;;;;15.30;100.00;102244.97;6202104;28;20494;-78
2022/07/12 04:12:15;;;;;;;4.15;2.08;;;;;;;15.34;100.00;102243.91;6201309;28;20409;-78
2022/07/12 04:15:17;;;;;;;3.83;2.15;;;;;;;15.37;100.00;102253.50;6202271;28;20070;-78
2022/07/12 04:18:18;;;;;;;3.90;2.30;;;;;;;15.41;100.00;102249.78;6201449;28;20057;-78
2022/07/12 04:21:19;;;;;;;4.35;3.25;;;;;;;15.37;100.00;102240.25;6202171;28;20057;-78
2022/07/12 04:24:21;;;;;;;6.43;4.35;;;;;;;15.29;100.00;102245.06;6222381;28;20050;-78
2022/07/12 04:27:26;;;;;;;4.28;3.10;;;;;;;15.28;100.00;102243.38;6225552;28;20062;-78
2022/07/12 04:30:29;;;;;;;5.28;3.38;;;;;;;15.27;100.00;102247.81;6217273;28;20180;-78
2022/07/12 04:33:30;;;;;;;5.40;3.25;;;;;;;15.28;100.00;102246.00;6201191;28;20046;-78
2022/07/12 04:36:32;;;;;;;4.03;3.08;;;;;;;15.31;100.00;102259.97;6216410;28;20050;-78
2022/07/12 04:39:34;;;;;;;6.15;3.45;;;;;;;15.33;100.00;102260.75;6225650;28;20180;-78
2022/07/12 04:42:36;;;;;;;7.38;3.13;;;;;;;15.31;100.00;102261.75;6225576;28;20057;-78
2022/07/12 04:45:38;;;;;;;6.00;3.72;;;;;;;15.32;100.00;102256.38;6225272;28;20050;-78
2022/07/12 04:48:39;;;;;;;4.25;3.08;;;;;;;15.33;100.00;102254.59;6225023;28;20394;-78
2022/07/12 04:51:40;;;;;;;7.57;4.25;;;;;;;15.34;100.00;102245.69;6225154;28;20425;-78
2022/07/12 04:54:41;;;;;;;5.28;3.85;;;;;;;15.35;100.00;102245.66;6224640;28;20057;-78
2022/07/12 04:57:44;;;;;;;8.18;3.55;;;;;;;15.39;100.00;102259.56;6224764;28;20506;-78
2022/07/12 05:00:45;;;;;;;6.85;3.95;;;;;;;15.41;100.00;102247.13;6223230;28;20060;-78
2022/07/12 05:03:47;;;;;;;6.28;3.97;;;;;;;15.37;100.00;102246.41;6224789;28;20049;-78
2022/07/12 05:06:48;;;;;;;5.88;4.15;;;;;;;15.37;100.00;102259.66;6225009;28;20073;-78
2022/07/12 05:09:51;;;;;;;5.07;3.75;;;;;;;15.38;100.00;102265.81;6224590;28;20056;-78
2022/07/12 05:12:53;;;;;;;4.70;3.67;;;;;;;15.42;100.00;102251.47;6224716;28;20502;-78
2022/07/12 05:15:55;;;;;;;5.97;4.18;;;;;;;15.45;100.00;102254.00;6224761;28;20046;-78
2022/07/12 05:18:56;;;;;;;4.95;3.60;;;;;;;15.46;100.00;102253.91;6224574;28;20050;-78
2022/07/12 05:21:57;;;;;;;4.72;3.20;;;;;;;15.50;100.00;102253.75;6224780;28;20727;-78
2022/07/12 05:24:58;;;;;;;5.18;3.45;;;;;;;15.51;100.00;102247.53;6224780;28;20049;-78
2022/07/12 05:28:01;;;;;;;4.60;3.20;;;;;;;15.52;100.00;102243.94;6224712;28;20057;-78
2022/07/12 05:31:02;;;;;;;5.95;3.38;;;;;;;15.52;100.00;102244.78;6222373;28;20057;-78
2022/07/12 05:34:04;;;;;;;5.20;3.60;;;;;;;15.53;100.00;102251.78;6224009;28;20062;-78
2022/07/12 05:37:05;;;;;;;5.53;3.72;;;;;;;15.50;100.00;102249.31;6224055;28;20414;-78
2022/07/12 05:40:08;;;;;;;4.70;3.42;;;;;;;15.54;100.00;102253.53;6224057;28;20053;-78
2022/07/12 05:43:11;;;;;;;8.20;3.70;;;;;;;15.55;100.00;102252.59;6224294;28;20413;-78
2022/07/12 05:46:12;;;;;;;6.10;3.63;;;;;;;15.54;100.00;102257.97;6223826;28;20046;-78
2022/07/12 05:49:13;;;;;;;5.13;3.00;;;;;;;15.53;100.00;102266.84;6223874;28;20046;-78
2022/07/12 05:55:33;;;;;;;4.53;3.07;;;;;;;15.53;100.00;102286.25;6223832;28;20053;-78
2022/07/12 05:58:36;;;;;;;6.53;3.88;;;;;;;15.57;100.00;102282.50;6221962;28;20299;-78
2022/07/12 06:01:37;;;;;;;6.25;3.90;;;;;;;15.55;100.00;102275.59;6223697;28;20054;-78
2022/07/12 06:04:38;;;;;;;4.53;3.33;;;;;;;15.56;100.00;102278.16;6222844;28;20464;-78
2022/07/12 06:07:40;;;;;;;6.10;3.70;;;;;;;15.60;100.00;102276.22;6223461;28;20073;-78
2022/07/12 06:10:41;;;;;;;4.75;3.50;;;;;;;15.65;100.00;102266.25;6225650;28;20049;-78
2022/07/12 06:13:44;;;;;;;4.97;3.40;;;;;;;15.66;100.00;102271.47;6234836;28;20300;-78
2022/07/12 06:16:45;;;;;;;5.03;3.78;;;;;;;15.67;100.00;102275.00;6232523;28;20548;-78
2022/07/12 06:19:46;;;;;;;5.80;3.83;;;;;;;15.70;100.00;102282.78;6230234;28;20497;-78
2022/07/12 06:22:48;;;;;;;4.13;3.17;;;;;;;15.83;100.00;102277.72;6233952;28;20057;-78
2022/07/12 06:25:50;;;;;;;4.30;3.28;;;;;;;15.97;100.00;102275.22;6224980;28;20135;-78
2022/07/12 06:28:53;;;;;;;4.28;3.38;;;;;;;16.04;100.00;102268.69;6222383;28;20045;-78
2022/07/12 06:31:54;;;;;;;5.80;4.18;;;;;;;16.07;100.00;102268.50;6225875;28;20046;-78
2022/07/12 06:34:56;;;;;;;4.40;3.28;;;;;;;16.13;100.00;102264.69;6234280;28;20053;-78
2022/07/12 06:37:58;;;;;;;5.22;3.55;;;;;;;16.15;100.00;102266.31;6229700;28;20057;-77
2022/07/12 06:40:59;;;;;;;6.93;3.63;;;;;;;16.20;100.00;102258.97;6233737;28;20046;-78
2022/07/12 06:44:03;;;;;;;4.43;3.15;;;;;;;16.17;100.00;102259.16;6233161;28;20045;-78
2022/07/12 06:47:05;;;;;;;5.25;3.95;;;;;;;16.12;100.00;102274.41;6234487;28;20046;-78
2022/07/12 06:50:07;;;;;;;5.20;3.67;;;;;;;16.10;100.00;102267.50;6233474;28;20050;-78
2022/07/12 06:53:12;;;;;;;7.22;4.22;;;;;;;16.05;100.00;102273.03;6229885;28;20057;-78
2022/07/12 06:56:13;;;;;;;4.80;3.22;;;;;;;16.03;100.00;102274.03;6233444;28;20055;-78
2022/07/12 06:59:16;;;;;;;5.55;3.67;;;;;;;16.01;100.00;102263.53;6233239;28;20049;-78
2022/07/12 07:02:17;;;;;;;5.63;3.40;;;;;;;16.00;100.00;102274.22;6239508;28;20065;-77
2022/07/12 07:05:19;;;;;;;6.65;3.72;;;;;;;16.01;100.00;102276.78;6247015;28;20064;-77
2022/07/12 07:08:21;;;;;;;5.30;3.55;;;;;;;16.03;100.00;102274.91;6246982;28;20049;-77
2022/07/12 07:11:22;;;;;;;5.43;3.47;;;;;;;16.06;100.00;102281.84;6246802;28;20049;-77
2022/07/12 07:14:25;;;;;;;5.90;3.58;;;;;;;16.07;100.00;102265.84;6246826;28;20516;-77
2022/07/12 07:17:26;;;;;;;4.70;3.30;;;;;;;16.09;100.00;102268.44;6248858;28;20057;-77
2022/07/12 07:20:27;;;;;;;6.70;3.88;;;;;;;16.08;100.00;102267.59;6245495;28;20061;-77
2022/07/12 07:23:28;;;;;;;4.93;3.60;;;;;;;16.12;100.00;102269.13;6232761;28;20058;-79
2022/07/12 07:26:30;;;;;;;6.03;3.90;;;;;;;16.11;100.00;102270.06;6224101;28;20053;-79
2022/07/12 07:32:51;;;;;;;6.35;3.50;;;;;;;16.19;100.00;102265.22;6202318;28;20054;-78
2022/07/12 07:35:53;;;;;;;5.03;3.63;;;;;;;16.22;100.00;102265.06;6202424;28;20054;-79
2022/07/12 07:38:57;;;;;;;4.28;2.60;;;;;;;16.29;100.00;102273.53;6202328;28;20224;-79
2022/07/12 07:41:58;;;;;;;3.30;2.28;;;;;;;16.38;100.00;102267.75;6202240;28;20432;-79
2022/07/12 07:45:03;;;;;;;2.85;1.98;;;;;;;16.42;100.00;102268.44;6202114;28;20054;-79
2022/07/12 07:48:04;;;;;;;2.72;2.33;;;;;;;16.45;100.00;102268.28;6204011;28;20077;-79
2022/07/12 07:51:06;;;;;;;2.53;2.05;;;;;;;16.53;100.00;102271.38;6225725;28;20050;-79
2022/07/12 07:54:07;;;;;;;3.33;2.33;;;;;;;16.61;100.00;102258.53;6226322;28;20045;-79
2022/07/12 07:57:09;;;;;;;3.13;1.90;;;;;;;16.66;100.00;102256.50;6225618;28;20060;-80
2022/07/12 08:00:13;;;;;;;2.95;1.80;;;;;;;16.73;99.90;102257.91;6226061;28;20061;-79
2022/07/12 08:03:14;;;;;;;2.42;1.92;;;;;;;16.82;99.80;102255.69;6226106;28;20046;-79
2022/07/12 08:06:16;;;;;;;3.30;1.80;;;;;;;16.92;100.00;102244.47;6226557;28;20050;-78
2022/07/12 08:09:17;;;;;;;2.03;1.70;;;;;;;17.02;100.00;102252.75;6226809;28;20502;-79
2022/07/12 08:12:19;;;;;;;2.08;1.52;;;;;;;17.09;98.49;102258.59;6225223;28;20054;-80
2022/07/12 08:15:22;;;;;;;3.03;2.13;;;;;;;17.10;94.75;102261.16;6216285;28;20046;-80
2022/07/12 08:18:23;;;;;;;2.55;1.80;;;;;;;17.14;96.21;102252.09;6210276;28;20054;-79
2022/07/12 08:21:25;;;;;;;1.67;1.20;;;;;;;17.21;94.11;102255.22;6209712;28;20060;-78
2022/07/12 08:24:27;;;;;;;1.80;1.40;;;;;;;17.27;93.32;102251.38;6227169;28;20046;-79
2022/07/12 08:27:28;;;;;;;2.78;1.65;;;;;;;17.29;94.62;102258.31;6227036;28;20449;-80
2022/07/12 08:30:31;;;;;;;2.30;1.65;;;;;;;17.36;94.73;102253.50;6224572;28;20050;-80
2022/07/12 08:33:32;;;;;;;2.35;1.80;;;;;;;17.38;94.31;102243.63;6228044;28;20057;-79
2022/07/12 08:36:33;;;;;;;2.83;1.88;;;;;;;17.40;95.03;102250.59;6226353;28;20053;-79
2022/07/12 08:39:35;;;;;;;6.10;1.90;;;;;;;17.46;94.21;102260.84;6222353;28;20049;-79
2022/07/12 08:42:41;;;;;;;1.88;1.55;;;;;;;17.43;90.71;102263.69;6225934;28;20046;-78
2022/07/12 08:45:44;;;;;;;3.03;1.73;;;;;;;17.46;90.63;102270.63;6203787;28;20057;-78
2022/07/12 08:48:45;;;;;;;2.35;1.70;;;;;;;17.57;88.96;102277.97;6224545;28;20053;-77
2022/07/12 08:51:48;;;;;;;2.20;1.63;;;;;;;17.63;88.51;102267.00;6225227;28;20057;-78
2022/07/12 08:54:49;;;;;;;2.53;1.70;;;;;;;17.71;86.07;102264.72;6223710;28;20046;-78
2022/07/12 08:57:54;;;;;;;1.98;1.52;;;;;;;17.71;85.07;102264.72;6226552;28;20046;-79
2022/07/12 09:00:57;;;;;;;2.72;1.77;;;;;;;17.72;86.07;102267.31;6228475;28;20049;-79
2022/07/12 09:04:10;;;;;;;1.42;1.25;;;;;;;17.69;86.99;102272.81;6227873;28;20053;-79
2022/07/12 09:07:14;;;;;;;1.88;1.27;;;;;;;17.72;85.53;102272.63;6226626;28;20050;-78
2022/07/12 09:10:16;;;;;;;1.75;1.40;;;;;;;17.75;84.21;102260.97;6225752;28;20050;-79
2022/07/12 09:13:17;;;;;;;3.05;1.48;;;;;;;17.78;84.97;102265.28;6227236;28;20423;-80
2022/07/12 09:16:22;;;;;;;2.30;1.73;;;;;;;17.81;82.11;102265.94;6224607;28;20061;-79
2022/07/12 09:19:23;;;;;;;1.50;1.40;;;;;;;17.88;84.78;102261.09;6226226;28;20057;-79
2022/07/12 09:22:24;;;;;;;2.13;1.45;;;;;;;17.98;84.77;102246.28;6227055;28;20050;-79
2022/07/12 09:25:26;;;;;;;1.80;1.30;;;;;;;18.08;82.69;102241.28;6228131;28;20049;-79
2022/07/12 09:28:28;;;;;;;1.60;1.30;;;;;;;18.21;83.49;102247.53;6227849;28;20053;-80
2022/07/12 09:36:05;;;;;;;1.33;1.00;;;;;;;18.31;80.62;102250.53;6228190;28;20050;-79
2022/07/12 09:38:22;;;;;;;1.33;1.10;;;;;;;18.44;81.74;102251.44;6227419;28;20050;-79
2022/07/12 09:41:24;;;;;;;1.90;1.10;;;;;;;18.53;83.34;102253.56;6225607;28;20050;-79
2022/07/12 09:44:28;;;;;;;1.60;1.17;;;;;;;18.66;82.25;102237.63;6222579;28;20050;-79
2022/07/12 09:47:32;;;;;;;2.28;1.48;;;;;;;18.79;81.89;102246.59;6201964;28;20080;-79
2022/07/12 09:50:36;;;;;;;1.05;0.98;;;;;;;18.88;82.31;102240.66;6214170;28;20061;-78
2022/07/12 09:53:40;;;;;;;2.40;1.20;;;;;;;18.96;82.80;102238.38;6197919;28;20050;-80
2022/07/12 09:56:43;;;;;;;1.00;0.88;;;;;;;19.00;82.66;102241.69;6217391;28;20077;-79
2022/07/12 09:59:45;;;;;;;1.80;1.20;;;;;;;19.09;80.11;102237.59;6223772;28;20054;-78
2022/07/12 10:02:51;;;;;;;0.85;0.85;;;;;;;19.10;80.45;102234.81;6226576;28;20046;-79
2022/07/12 10:05:53;;;;;;;0.98;0.80;;;;;;;19.21;80.16;102232.31;6224988;28;20453;-79
2022/07/12 10:08:55;;;;;;;2.20;1.30;;;;;;;19.33;79.46;102219.94;6225761;28;20423;-79
2022/07/12 10:11:57;;;;;;;1.10;1.00;;;;;;;19.36;79.71;102214.44;6226052;28;20060;-79
2022/07/12 10:15:02;;;;;;;1.70;1.23;;;;;;;19.40;79.80;102215.94;6211878;28;20054;-79
2022/07/12 10:18:05;;;;;;;1.10;1.00;;;;;;;19.58;79.59;102208.50;6200738;28;20058;-79
2022/07/12 10:21:19;;;;;;;1.88;1.58;;;;;;;19.83;78.00;102206.84;6201794;28;20054;-79
2022/07/12 10:24:49;;;;;;;0.80;0.70;;;;;;;19.99;79.23;102211.03;6202060;28;20061;-79
2022/07/12 10:27:50;;;;;;;1.10;0.95;;;;;;;20.07;74.69;102221.13;6201648;28;20073;-79
2022/07/12 10:30:53;;;;;;;0.93;0.82;;;;;;;20.14;73.53;102213.56;6200850;28;20528;-79
2022/07/12 10:34:20;;;;;;;1.10;1.00;;;;;;;20.27;75.86;102222.41;6201303;28;20513;-79
2022/07/12 10:37:21;;;;;;;1.13;1.02;;;;;;;20.31;72.83;102210.56;6200819;28;20046;-79
2022/07/12 10:40:23;;;;;;;1.35;1.25;;;;;;;20.44;71.39;102205.22;6201235;28;20058;-79
2022/07/12 10:47:00;;;;;;;1.00;0.75;;;;;;;20.88;69.79;102199.31;6228908;28;20082;-80
2022/07/12 10:50:04;;;;;;;1.30;1.20;;;;;;;20.99;66.96;102201.22;6225205;28;20050;-77
2022/07/12 10:53:25;;;;;;;1.00;1.00;;;;;;;21.06;66.32;102198.91;6226343;28;20057;-78
2022/07/12 10:56:27;;;;;;;1.90;1.10;;;;;;;21.07;65.15;102198.78;6227237;28;20050;-78
2022/07/12 10:59:30;;;;;;;0.95;0.90;;;;;;;21.17;65.46;102205.19;6227362;28;20077;-78
2022/07/12 11:02:32;;;;;;;1.20;1.10;;;;;;;21.36;66.13;102207.34;6227170;28;20069;-75
2022/07/12 11:05:34;;;;;;;1.90;0.80;;;;;;;21.40;64.72;102200.81;6227131;28;20061;-76
2022/07/12 11:08:56;;;;;;;1.42;0.70;;;;;;;21.53;65.24;102198.03;6225649;28;20490;-76
2022/07/12 11:11:57;;;;;;;0.90;0.80;;;;;;;21.89;66.80;102180.97;6224222;28;20061;-76
2022/07/12 11:14:59;;;;;;;0.95;0.85;;;;;;;22.02;63.66;102183.50;6225046;28;20050;-77
2022/07/12 11:18:01;;;;;;;0.80;0.80;;;;;;;22.20;64.20;102178.53;6219861;28;20051;-76
2022/07/12 11:21:05;;;;;;;1.02;0.90;;;;;;;22.37;63.19;102177.19;6219056;28;20058;-76
2022/07/12 11:24:16;;;;;;;0.80;0.80;;;;;;;22.53;62.40;102172.31;6215682;28;20413;-77
2022/07/12 11:27:17;;;;;;;0.88;0.82;;;;;;;22.75;62.54;102166.03;6224902;28;20054;-75
2022/07/12 11:30:19;;;;;;;0.55;0.55;;;;;;;22.88;62.82;102160.50;6238351;28;20046;-76
2022/07/12 11:33:26;;;;;;;1.08;0.80;;;;;;;22.93;62.66;102152.97;6248150;28;20054;-76
2022/07/12 11:36:30;;;;;;;0.50;0.50;;;;;;;23.16;63.85;102156.41;6225703;28;20058;-76
2022/07/12 11:39:33;;;;;;;1.02;0.75;;;;;;;23.51;60.26;102156.94;6219584;28;20498;-76
2022/07/12 11:42:34;;;;;;;0.70;0.55;;;;;;;23.73;58.99;102158.66;6223414;28;20042;-76
2022/07/12 11:45:35;;;;;;;0.60;0.60;;;;;;;23.87;57.32;102154.75;6201628;28;20073;-76
2022/07/12 11:48:37;;;;;;;0.50;0.50;;;;;;;23.92;56.71;102157.88;6201222;28;20042;-76
2022/07/12 11:51:40;;;;;;;0.50;0.50;;;;;;;24.22;60.22;102150.81;6210303;28;20050;-75
2022/07/12 11:54:41;;;;;;;0.50;0.50;;;;;;;24.42;60.54;102144.50;6222394;28;20065;-76
2022/07/12 11:57:43;;;;;;;0.50;0.50;;;;;;;24.66;58.90;102148.66;6207064;28;20410;-76
2022/07/12 12:00:46;;;;;;;3.20;0.50;;;;;;;24.77;56.26;102145.84;6219359;28;20050;-76
2022/07/12 12:03:49;;;;;;;0.45;0.38;;;;;;;24.80;55.02;102143.75;6221695;28;20045;-77
2022/07/12 12:06:52;;;;;;;1.98;0.50;;;;;;;24.77;54.62;102145.84;6211653;28;20049;-76
2022/07/12 12:10:01;;;;;;;0.47;0.40;;;;;;;24.79;55.68;102144.69;6225197;28;20391;-76
2022/07/12 12:13:03;;;;;;;0.40;0.40;;;;;;;24.79;54.85;102135.78;6210178;28;20054;-75
2022/07/12 12:16:06;;;;;;;0.30;0.30;;;;;;;24.87;55.46;102140.47;6200984;28;20069;-76
2022/07/12 12:19:11;;;;;;;1.25;0.30;;;;;;;25.13;55.79;102138.09;6200797;28;20133;-75
2022/07/12 12:25:41;;;;;;;0.32;0.32;;;;;;;25.58;56.76;102129.38;6318400;28;20370;-74
2022/07/12 12:28:48;;;;;;;0.38;0.38;;;;;;;25.99;57.14;102122.72;6318357;28;20044;-75
2022/07/12 12:31:57;;;;;;;0.20;0.20;;;;;;;26.10;53.81;102119.81;6317990;28;20063;-74
2022/07/12 12:35:09;;;;;;;1.13;0.50;;;;;;;26.19;54.11;102115.38;6318087;28;20051;-74
2022/07/12 12:38:12;;;;;;;0.75;0.30;;;;;;;26.24;55.44;102116.63;6317819;28;20045;-75
2022/07/12 12:41:16;;;;;;;0.47;0.47;;;;;;;26.00;52.78;102117.19;6312581;28;20045;-73
2022/07/12 12:44:18;;;;;;;0.57;0.40;;;;;;;26.07;53.93;102114.72;6292432;28;20488;-74
2022/07/12 12:47:31;;;;;;;0.73;0.50;;;;;;;26.20;53.75;102111.69;6292302;28;20070;-74
2022/07/12 12:50:43;;;;;;;0.75;0.70;;;;;;;26.24;52.70;102107.69;6292422;28;20058;-74
2022/07/12 12:53:55;;;;;;;0.38;0.38;;;;;;;26.39;53.66;102097.22;6292368;28;20044;-74
2022/07/12 12:56:57;;;;;;;0.55;0.40;;;;;;;26.58;49.32;102110.63;6292290;28;20056;-73
2022/07/12 12:59:59;;;;;;;0.50;0.50;;;;;;;26.74;51.77;102099.13;6292264;28;20049;-74
2022/07/12 13:03:00;;;;;;;0.52;0.50;;;;;;;26.92;48.70;102094.56;6292063;28;20139;-73
2022/07/12 13:06:04;;;;;;;0.60;0.60;;;;;;;27.13;45.92;102088.88;6291873;28;20055;-74
2022/07/12 13:09:06;;;;;;;0.70;0.70;;;;;;;27.33;46.94;102094.06;6291965;28;20056;-73
2022/07/12 13:12:09;;;;;;;0.80;0.80;;;;;;;27.09;45.40;102090.19;6292475;28;20492;-73
2022/07/12 13:15:10;;;;;;;0.70;0.50;;;;;;;27.13;47.04;102096.13;6312575;28;20089;-74
2022/07/12 13:18:11;;;;;;;0.98;0.88;;;;;;;27.09;46.82;102097.44;6316777;28;20048;-74
2022/07/12 13:21:13;;;;;;;1.23;1.13;;;;;;;27.39;45.67;102093.41;6313349;28;20531;-74
2022/07/12 13:24:14;;;;;;;0.75;0.57;;;;;;;27.50;47.66;102091.28;6312639;28;20036;-74
2022/07/12 13:27:17;;;;;;;1.13;0.88;;;;;;;27.69;46.66;102092.91;6316798;28;20048;-74
2022/07/12 13:30:18;;;;;;;1.20;1.05;;;;;;;27.35;45.07;102094.75;6316484;28;20052;-74
2022/07/12 13:33:19;;;;;;;1.48;1.25;;;;;;;27.30;45.41;102090.69;6312217;28;20052;-74
2022/07/12 13:36:21;;;;;;;0.90;0.80;;;;;;;27.47;44.46;102082.66;6303395;28;20048;-74
2022/07/12 13:42:44;;;;;;;1.13;1.02;;;;;;;28.01;46.03;102085.97;6274722;28;20053;-75
2022/07/12 13:45:46;;;;;;;0.93;0.90;;;;;;;28.14;46.37;102085.53;6274643;28;20044;-74
2022/07/12 13:48:47;;;;;;;1.40;0.95;;;;;;;28.14;45.77;102080.13;6274440;28;20063;-74
2022/07/12 13:51:48;;;;;;;1.05;0.95;;;;;;;28.13;40.94;102086.53;6274470;28;20053;-74
2022/07/12 13:54:50;;;;;;;1.00;0.90;;;;;;;27.92;42.42;102076.16;6274378;28;20051;-74
2022/07/12 13:57:52;;;;;;;1.23;1.13;;;;;;;27.72;41.75;102081.81;6274640;28;20045;-74
2022/07/12 14:00:54;;;;;;;0.98;0.82;;;;;;;27.83;42.92;102075.28;6274162;28;20061;-74
2022/07/12 14:03:56;;;;;;;0.90;0.90;;;;;;;27.87;43.93;102073.94;6273992;28;20057;-74
2022/07/12 14:06:57;;;;;;;0.77;0.77;;;;;;;28.07;43.75;102071.84;6274119;28;20479;-74
2022/07/12 14:09:59;;;;;;;1.15;0.90;;;;;;;27.83;43.69;102072.56;6275249;28;20057;-73
2022/07/12 14:13:02;;;;;;;0.70;0.70;;;;;;;27.51;44.13;102068.69;6274339;28;20049;-73
2022/07/12 14:16:04;;;;;;;1.27;1.05;;;;;;;27.37;45.45;102076.53;6274308;28;20044;-74
2022/07/12 14:19:05;;;;;;;1.00;0.90;;;;;;;26.96;45.70;102073.53;6274092;28;20049;-74
2022/07/12 14:22:06;;;;;;;0.80;0.80;;;;;;;27.08;46.01;102085.75;6273918;28;20679;-74
2022/07/12 14:25:09;;;;;;;0.70;0.70;;;;;;;26.86;45.79;102079.00;6273444;28;20049;-72
2022/07/12 14:28:12;;;;;;;1.10;0.80;;;;;;;26.76;46.97;102079.09;6274036;28;20052;-77
2022/07/12 14:31:13;;;;;;;0.85;0.65;;;;;;;26.77;46.39;102075.41;6273854;28;20045;-76
2022/07/12 14:34:15;;;;;;;0.60;0.60;;;;;;;26.99;45.53;102073.22;6292515;28;20504;-75